createdAt,value
2023-04-09T00:00:14.987Z,8.08
2023-04-09T00:01:14.946Z,8.10
2023-04-09T00:02:14.972Z,8.15
2023-04-09T00:03:15.049Z,8.07
2023-04-09T00:04:14.994Z,8.12
2023-04-09T00:05:14.936Z,8.12
2023-04-09T00:06:14.924Z,8.18
2023-04-09T00:07:14.921Z,8.19
2023-04-09T00:08:14.920Z,8.12
2023-04-09T00:09:14.934Z,8.10
2023-04-09T00:10:14.921Z,8.11
2023-04-09T00:11:14.908Z,8.16
2023-04-09T00:12:14.902Z,8.08
2023-04-09T00:13:15.873Z,8.10
2023-04-09T00:14:14.896Z,8.08
2023-04-09T00:15:27.844Z,8.16
2023-04-09T00:16:14.997Z,8.10
2023-04-09T00:17:14.887Z,8.07
2023-04-09T00:18:14.884Z,8.16
2023-04-09T00:19:14.876Z,8.07
2023-04-09T00:20:14.871Z,8.10
2023-04-09T00:21:14.888Z,8.19
2023-04-09T00:22:14.882Z,8.08
2023-04-09T00:23:14.864Z,8.11
2023-04-09T00:24:14.857Z,8.10
2023-04-09T00:25:14.875Z,8.15
2023-04-09T00:26:14.858Z,8.05
2023-04-09T00:27:14.882Z,8.15
2023-04-09T00:28:14.846Z,8.08
2023-04-09T00:29:14.839Z,8.08
2023-04-09T00:30:14.837Z,8.00
2023-04-09T00:31:14.861Z,8.00
2023-04-09T00:32:14.864Z,7.90
2023-04-09T00:33:14.842Z,7.72
2023-04-09T00:34:14.843Z,7.45
2023-04-09T00:35:14.821Z,7.46
2023-04-09T00:36:14.858Z,7.37
2023-04-09T00:37:14.817Z,7.25
2023-04-09T00:38:14.805Z,7.21
2023-04-09T00:39:14.805Z,7.20
2023-04-09T00:40:14.805Z,7.05
2023-04-09T00:41:14.801Z,6.97
2023-04-09T00:42:14.801Z,7.10
2023-04-09T00:43:14.793Z,6.91
2023-04-09T00:44:14.791Z,6.91
2023-04-09T00:45:14.786Z,6.91
2023-04-09T00:46:14.993Z,6.89
2023-04-09T00:47:14.777Z,6.85
2023-04-09T00:48:14.799Z,6.79
2023-04-09T00:49:14.773Z,6.76
2023-04-09T00:50:14.766Z,6.74
2023-04-09T00:51:14.765Z,6.71
2023-04-09T00:52:14.753Z,6.70
2023-04-09T00:53:14.756Z,6.76
2023-04-09T00:54:14.751Z,6.81
2023-04-09T00:55:14.766Z,6.80
2023-04-09T00:56:14.741Z,6.84
2023-04-09T00:57:14.743Z,6.85
2023-04-09T00:58:14.734Z,7.07
2023-04-09T00:59:14.739Z,7.02
2023-04-09T01:00:14.735Z,7.10
2023-04-09T01:01:14.815Z,7.12
2023-04-09T01:02:14.974Z,7.24
2023-04-09T01:03:14.822Z,7.23
2023-04-09T01:04:14.732Z,7.23
2023-04-09T01:05:14.712Z,7.10
2023-04-09T01:06:14.699Z,7.06
2023-04-09T01:07:14.699Z,7.03
2023-04-09T01:08:14.689Z,6.92
2023-04-09T01:09:14.693Z,6.94
2023-04-09T01:10:14.687Z,6.89
2023-04-09T01:11:14.681Z,7.02
2023-04-09T01:12:14.674Z,7.10
2023-04-09T01:13:14.679Z,7.13
2023-04-09T01:14:14.667Z,7.20
2023-04-09T01:15:14.675Z,7.25
2023-04-09T01:16:14.692Z,7.23
2023-04-09T01:17:14.662Z,7.32
2023-04-09T01:18:14.653Z,7.25
2023-04-09T01:19:14.644Z,7.28
2023-04-09T01:20:14.658Z,7.24
2023-04-09T01:21:14.655Z,7.23
2023-04-09T01:22:14.633Z,7.13
2023-04-09T01:23:14.630Z,7.09
2023-04-09T01:24:14.633Z,7.02
2023-04-09T01:25:14.621Z,7.12
2023-04-09T01:26:14.631Z,7.15
2023-04-09T01:27:14.612Z,7.15
2023-04-09T01:28:14.606Z,7.12
2023-04-09T01:29:14.601Z,7.10
2023-04-09T01:30:14.601Z,6.98
2023-04-09T01:31:14.715Z,7.09
2023-04-09T01:32:14.591Z,7.03
2023-04-09T01:33:14.588Z,7.06
2023-04-09T01:34:14.594Z,7.05
2023-04-09T01:35:14.591Z,6.94
2023-04-09T01:36:14.663Z,6.88
2023-04-09T01:37:14.581Z,6.85
2023-04-09T01:38:14.578Z,6.88
2023-04-09T01:39:14.575Z,6.87
2023-04-09T01:40:14.572Z,6.95
2023-04-09T01:41:14.661Z,7.03
2023-04-09T01:42:14.550Z,6.99
2023-04-09T01:43:14.550Z,6.88
2023-04-09T01:44:14.556Z,6.99
2023-04-09T01:45:14.545Z,6.99
2023-04-09T01:46:14.969Z,6.91
2023-04-09T01:47:14.536Z,6.81
2023-04-09T01:48:14.527Z,6.76
2023-04-09T01:49:14.523Z,6.73
2023-04-09T01:50:14.524Z,6.56
2023-04-09T01:51:14.517Z,6.55
2023-04-09T01:52:14.543Z,6.41
2023-04-09T01:53:14.510Z,6.43
2023-04-09T01:54:14.525Z,6.36
2023-04-09T01:55:14.504Z,6.34
2023-04-09T01:56:14.499Z,6.37
2023-04-09T01:57:14.492Z,6.31
2023-04-09T01:58:14.485Z,6.25
2023-04-09T01:59:14.480Z,6.14
2023-04-09T02:00:14.484Z,6.18
2023-04-09T02:01:14.528Z,6.14
2023-04-09T02:02:14.564Z,6.00
2023-04-09T02:03:14.517Z,6.00
2023-04-09T02:04:14.466Z,6.03
2023-04-09T02:05:14.460Z,6.03
2023-04-09T02:06:14.463Z,6.00
2023-04-09T02:07:14.449Z,6.04
2023-04-09T02:08:14.469Z,6.06
2023-04-09T02:09:14.442Z,6.03
2023-04-09T02:10:14.443Z,6.04
2023-04-09T02:11:14.430Z,6.08
2023-04-09T02:12:14.420Z,6.04
2023-04-09T02:13:14.420Z,6.15
2023-04-09T02:14:14.414Z,6.11
2023-04-09T02:15:14.450Z,6.27
2023-04-09T02:16:14.483Z,6.28
2023-04-09T02:17:14.406Z,6.28
2023-04-09T02:18:14.402Z,6.30
2023-04-09T02:19:14.400Z,6.19
2023-04-09T02:20:14.396Z,6.34
2023-04-09T02:21:14.391Z,6.31
2023-04-09T02:22:14.376Z,6.27
2023-04-09T02:23:14.378Z,6.17
2023-04-09T02:24:14.399Z,6.18
2023-04-09T02:25:14.369Z,6.08
2023-04-09T02:26:14.361Z,6.08
2023-04-09T02:27:14.364Z,6.11
2023-04-09T02:28:14.353Z,6.09
2023-04-09T02:29:14.350Z,6.17
2023-04-09T02:30:14.338Z,6.12
2023-04-09T02:31:14.385Z,6.18
2023-04-09T02:32:14.341Z,6.11
2023-04-09T02:33:14.330Z,6.03
2023-04-09T02:34:14.325Z,6.11
2023-04-09T02:35:14.324Z,6.09
2023-04-09T02:36:14.339Z,6.18
2023-04-09T02:37:14.317Z,6.12
2023-04-09T02:38:14.304Z,6.11
2023-04-09T02:39:14.318Z,6.11
2023-04-09T02:40:14.329Z,6.11
2023-04-09T02:41:14.302Z,6.17
2023-04-09T02:42:14.290Z,6.18
2023-04-09T02:43:14.289Z,6.17
2023-04-09T02:44:14.278Z,6.17
2023-04-09T02:45:14.279Z,6.18
2023-04-09T02:46:14.300Z,6.14
2023-04-09T02:47:14.272Z,6.25
2023-04-09T02:48:14.264Z,6.14
2023-04-09T02:49:14.259Z,6.17
2023-04-09T02:50:14.259Z,6.21
2023-04-09T02:51:14.249Z,6.12
2023-04-09T02:52:14.247Z,6.08
2023-04-09T02:53:14.247Z,6.11
2023-04-09T02:54:14.240Z,6.04
2023-04-09T02:55:14.232Z,6.08
2023-04-09T02:56:14.251Z,6.08
2023-04-09T02:57:14.225Z,6.11
2023-04-09T02:58:14.230Z,5.99
2023-04-09T02:59:14.220Z,5.99
2023-04-09T03:00:14.215Z,5.89
2023-04-09T03:01:14.253Z,5.91
2023-04-09T03:02:14.463Z,5.90
2023-04-09T03:03:14.333Z,5.83
2023-04-09T03:04:14.263Z,5.90
2023-04-09T03:05:14.189Z,5.94
2023-04-09T03:06:14.185Z,5.90
2023-04-09T03:07:14.186Z,5.89
2023-04-09T03:08:14.174Z,5.86
2023-04-09T03:09:14.182Z,5.93
2023-04-09T03:10:14.168Z,5.97
2023-04-09T03:11:14.170Z,6.11
2023-04-09T03:12:14.268Z,5.97
2023-04-09T03:13:14.150Z,6.08
2023-04-09T03:14:14.161Z,6.14
2023-04-09T03:15:14.140Z,6.08
2023-04-09T03:16:14.185Z,6.04
2023-04-09T03:17:14.134Z,6.04
2023-04-09T03:18:14.135Z,6.06
2023-04-09T03:19:14.138Z,6.12
2023-04-09T03:20:14.127Z,6.12
2023-04-09T03:21:15.097Z,6.08
2023-04-09T03:22:14.129Z,6.15
2023-04-09T03:23:14.109Z,6.11
2023-04-09T03:24:14.115Z,6.08
2023-04-09T03:25:14.100Z,6.25
2023-04-09T03:26:14.090Z,6.12
2023-04-09T03:27:14.080Z,6.11
2023-04-09T03:28:14.109Z,6.11
2023-04-09T03:29:14.082Z,6.08
2023-04-09T03:30:14.075Z,6.06
2023-04-09T03:31:14.185Z,6.11
2023-04-09T03:32:14.065Z,6.11
2023-04-09T03:33:14.058Z,6.14
2023-04-09T03:34:14.059Z,6.25
2023-04-09T03:35:14.046Z,6.40
2023-04-09T03:36:14.048Z,6.34
2023-04-09T03:37:14.040Z,6.37
2023-04-09T03:38:14.040Z,6.30
2023-04-09T03:39:14.031Z,6.37
2023-04-09T03:40:14.036Z,6.37
2023-04-09T03:41:14.026Z,6.43
2023-04-09T03:42:14.023Z,6.40
2023-04-09T03:43:14.009Z,6.44
2023-04-09T03:44:14.026Z,6.36
2023-04-09T03:45:14.014Z,6.34
2023-04-09T03:46:14.014Z,6.21
2023-04-09T03:47:14.004Z,6.06
2023-04-09T03:48:13.993Z,5.94
2023-04-09T03:49:13.985Z,6.00
2023-04-09T03:50:13.980Z,5.89
2023-04-09T03:51:13.974Z,5.85
2023-04-09T03:52:13.980Z,5.89
2023-04-09T03:53:13.967Z,5.76
2023-04-09T03:54:13.964Z,5.76
2023-04-09T03:55:13.957Z,5.81
2023-04-09T03:56:13.954Z,5.76
2023-04-09T03:57:13.953Z,5.75
2023-04-09T03:58:13.943Z,5.85
2023-04-09T03:59:13.932Z,5.93
2023-04-09T04:00:13.961Z,5.89
2023-04-09T04:01:13.932Z,5.96
2023-04-09T04:02:14.051Z,6.06
2023-04-09T04:03:14.124Z,6.12
2023-04-09T04:04:14.023Z,6.12
2023-04-09T04:05:13.905Z,6.18
2023-04-09T04:06:13.900Z,6.19
2023-04-09T04:07:13.891Z,6.11
2023-04-09T04:08:13.897Z,6.09
2023-04-09T04:09:13.886Z,6.21
2023-04-09T04:10:13.881Z,6.19
2023-04-09T04:11:13.889Z,6.09
2023-04-09T04:12:13.872Z,6.08
2023-04-09T04:13:13.876Z,6.27
2023-04-09T04:14:13.875Z,6.25
2023-04-09T04:15:13.857Z,6.14
2023-04-09T04:16:13.917Z,6.17
2023-04-09T04:17:13.841Z,6.15
2023-04-09T04:18:13.846Z,6.17
2023-04-09T04:19:13.840Z,6.17
2023-04-09T04:20:13.835Z,6.14
2023-04-09T04:21:13.847Z,6.25
2023-04-09T04:22:13.824Z,6.27
2023-04-09T04:23:13.818Z,6.30
2023-04-09T04:24:13.821Z,6.36
2023-04-09T04:25:13.826Z,6.52
2023-04-09T04:26:13.810Z,6.62
2023-04-09T04:27:13.801Z,6.69
2023-04-09T04:28:13.800Z,6.71
2023-04-09T04:29:13.787Z,6.64
2023-04-09T04:30:13.791Z,6.64
2023-04-09T04:31:13.793Z,6.70
2023-04-09T04:32:13.801Z,6.70
2023-04-09T04:33:13.775Z,6.69
2023-04-09T04:34:13.773Z,6.80
2023-04-09T04:35:13.759Z,6.81
2023-04-09T04:36:13.762Z,6.81
2023-04-09T04:37:13.749Z,6.89
2023-04-09T04:38:13.757Z,6.81
2023-04-09T04:39:13.743Z,6.87
2023-04-09T04:40:13.743Z,6.88
2023-04-09T04:41:13.731Z,7.02
2023-04-09T04:42:13.734Z,6.99
2023-04-09T04:43:13.723Z,7.13
2023-04-09T04:44:13.722Z,7.16
2023-04-09T04:45:13.724Z,7.16
2023-04-09T04:46:13.778Z,7.15
2023-04-09T04:47:13.706Z,7.13
2023-04-09T04:48:13.734Z,7.23
2023-04-09T04:49:13.695Z,7.30
2023-04-09T04:50:13.715Z,7.31
2023-04-09T04:51:13.687Z,7.39
2023-04-09T04:52:14.168Z,7.50
2023-04-09T04:53:13.690Z,7.42
2023-04-09T04:54:13.676Z,7.43
2023-04-09T04:55:13.668Z,7.40
2023-04-09T04:56:13.674Z,7.52
2023-04-09T04:57:13.672Z,7.50
2023-04-09T04:58:13.658Z,7.61
2023-04-09T04:59:13.657Z,7.49
2023-04-09T05:00:13.648Z,7.58
2023-04-09T05:01:13.745Z,7.57
2023-04-09T05:02:13.718Z,7.71
2023-04-09T05:03:13.687Z,7.71
2023-04-09T05:04:13.648Z,7.69
2023-04-09T05:05:13.626Z,7.74
2023-04-09T05:06:13.628Z,7.80
2023-04-09T05:07:13.616Z,7.85
2023-04-09T05:08:13.616Z,7.86
2023-04-09T05:09:13.604Z,7.98
2023-04-09T05:10:13.614Z,7.98
2023-04-09T05:11:13.597Z,7.93
2023-04-09T05:12:13.608Z,8.01
2023-04-09T05:13:13.595Z,8.00
2023-04-09T05:14:13.592Z,8.02
2023-04-09T05:15:13.576Z,7.95
2023-04-09T05:16:13.611Z,8.08
2023-04-09T05:17:13.574Z,8.04
2023-04-09T05:18:13.570Z,8.08
2023-04-09T05:19:13.568Z,8.07
2023-04-09T05:20:13.590Z,8.07
2023-04-09T05:21:13.880Z,8.04
2023-04-09T05:22:13.557Z,8.08
2023-04-09T05:23:13.543Z,7.95
2023-04-09T05:24:13.545Z,7.83
2023-04-09T05:25:13.552Z,7.75
2023-04-09T05:26:13.545Z,7.74
2023-04-09T05:27:13.533Z,7.69
2023-04-09T05:28:13.534Z,7.74
2023-04-09T05:29:13.521Z,7.68
2023-04-09T05:30:13.538Z,7.68
2023-04-09T05:31:13.728Z,7.72
2023-04-09T05:32:13.521Z,7.75
2023-04-09T05:33:13.503Z,7.77
2023-04-09T05:34:13.514Z,7.68
2023-04-09T05:35:13.499Z,7.87
2023-04-09T05:36:13.547Z,7.85
2023-04-09T05:37:13.487Z,7.87
2023-04-09T05:38:13.488Z,7.89
2023-04-09T05:39:13.498Z,8.02
2023-04-09T05:40:13.479Z,7.90
2023-04-09T05:41:13.473Z,7.86
2023-04-09T05:42:13.476Z,7.93
2023-04-09T05:43:13.463Z,7.87
2023-04-09T05:44:13.464Z,7.97
2023-04-09T05:45:13.461Z,8.00
2023-04-09T05:46:13.472Z,7.97
2023-04-09T05:47:13.454Z,8.10
2023-04-09T05:48:13.451Z,8.05
2023-04-09T05:49:13.452Z,8.12
2023-04-09T05:50:13.445Z,8.16
2023-04-09T05:51:13.432Z,8.23
2023-04-09T05:52:13.462Z,8.11
2023-04-09T05:53:13.426Z,8.15
2023-04-09T05:54:13.437Z,8.10
2023-04-09T05:55:13.437Z,8.18
2023-04-09T05:56:13.423Z,8.11
2023-04-09T05:57:13.414Z,8.29
2023-04-09T05:58:13.411Z,8.28
2023-04-09T05:59:13.401Z,8.30
2023-04-09T06:00:13.416Z,8.28
2023-04-09T06:01:13.395Z,8.34
2023-04-09T06:02:13.487Z,8.25
2023-04-09T06:03:13.509Z,8.29
2023-04-09T06:04:13.559Z,8.37
2023-04-09T06:05:13.385Z,8.37
2023-04-09T06:06:13.382Z,8.40
2023-04-09T06:07:13.373Z,8.45
2023-04-09T06:08:13.397Z,8.45
2023-04-09T06:09:13.378Z,8.43
2023-04-09T06:10:13.366Z,8.50
2023-04-09T06:11:13.357Z,8.41
2023-04-09T06:12:13.357Z,8.36
2023-04-09T06:13:13.370Z,8.45
2023-04-09T06:14:13.346Z,8.48
2023-04-09T06:15:13.343Z,8.59
2023-04-09T06:16:13.390Z,8.62
2023-04-09T06:17:13.338Z,8.55
2023-04-09T06:18:13.333Z,8.63
2023-04-09T06:19:13.328Z,8.65
2023-04-09T06:20:13.323Z,8.58
2023-04-09T06:21:13.323Z,8.62
2023-04-09T06:22:13.321Z,8.68
2023-04-09T06:23:13.307Z,8.76
2023-04-09T06:24:13.342Z,8.77
2023-04-09T06:25:13.304Z,8.81
2023-04-09T06:26:13.312Z,8.66
2023-04-09T06:27:13.298Z,8.71
2023-04-09T06:28:13.314Z,8.94
2023-04-09T06:29:13.291Z,8.92
2023-04-09T06:30:13.303Z,9.01
2023-04-09T06:31:13.327Z,9.10
2023-04-09T06:32:13.293Z,9.10
2023-04-09T06:33:13.322Z,9.02
2023-04-09T06:34:13.274Z,9.10
2023-04-09T06:35:13.265Z,9.08
2023-04-09T06:36:13.293Z,9.18
2023-04-09T06:37:13.259Z,9.18
2023-04-09T06:38:13.264Z,9.23
2023-04-09T06:39:13.249Z,9.28
2023-04-09T06:40:13.404Z,9.29
2023-04-09T06:41:13.247Z,9.31
2023-04-09T06:42:13.246Z,9.40
2023-04-09T06:43:13.237Z,9.36
2023-04-09T06:44:13.239Z,9.40
2023-04-09T06:45:13.229Z,9.46
2023-04-09T06:46:13.271Z,9.54
2023-04-09T06:47:13.224Z,9.50
2023-04-09T06:48:13.228Z,9.60
2023-04-09T06:49:13.221Z,9.66
2023-04-09T06:50:13.218Z,9.64
2023-04-09T06:51:13.213Z,9.79
2023-04-09T06:52:13.207Z,9.79
2023-04-09T06:53:13.260Z,9.81
2023-04-09T06:54:13.214Z,9.89
2023-04-09T06:55:13.196Z,9.90
2023-04-09T06:56:13.224Z,9.99
2023-04-09T06:57:13.196Z,10.02
2023-04-09T06:58:13.198Z,10.08
2023-04-09T06:59:13.183Z,10.15
2023-04-09T07:00:13.205Z,10.20
2023-04-09T07:01:13.184Z,10.25
2023-04-09T07:02:13.297Z,10.30
2023-04-09T07:03:13.260Z,10.33
2023-04-09T07:04:13.274Z,10.29
2023-04-09T07:05:13.217Z,10.32
2023-04-09T07:06:13.165Z,10.38
2023-04-09T07:07:13.178Z,10.36
2023-04-09T07:08:13.159Z,10.42
2023-04-09T07:09:13.152Z,10.51
2023-04-09T07:10:13.161Z,10.56
2023-04-09T07:11:13.146Z,10.63
2023-04-09T07:12:13.235Z,10.56
2023-04-09T07:13:13.145Z,10.67
2023-04-09T07:14:13.149Z,10.64
2023-04-09T07:15:13.138Z,10.74
2023-04-09T07:16:13.167Z,10.79
2023-04-09T07:17:13.128Z,10.66
2023-04-09T07:18:13.140Z,10.79
2023-04-09T07:19:13.122Z,10.79
2023-04-09T07:20:13.127Z,10.81
2023-04-09T07:21:13.130Z,10.81
2023-04-09T07:22:13.122Z,10.81
2023-04-09T07:23:13.115Z,10.84
2023-04-09T07:24:13.391Z,10.88
2023-04-09T07:25:13.110Z,10.94
2023-04-09T07:26:13.111Z,10.91
2023-04-09T07:27:13.108Z,10.94
2023-04-09T07:28:13.123Z,10.96
2023-04-09T07:29:13.116Z,10.94
2023-04-09T07:30:13.117Z,11.00
2023-04-09T07:31:13.181Z,11.03
2023-04-09T07:32:13.093Z,11.10
2023-04-09T07:33:13.158Z,11.21
2023-04-09T07:34:13.084Z,11.21
2023-04-09T07:35:13.094Z,11.17
2023-04-09T07:36:13.208Z,11.25
2023-04-09T07:37:13.070Z,11.21
2023-04-09T07:38:13.074Z,11.27
2023-04-09T07:39:13.101Z,11.35
2023-04-09T07:40:13.086Z,11.43
2023-04-09T07:41:13.071Z,11.39
2023-04-09T07:42:13.070Z,11.39
2023-04-09T07:43:13.062Z,11.42
2023-04-09T07:44:13.085Z,11.40
2023-04-09T07:45:13.075Z,11.52
2023-04-09T07:46:13.102Z,11.46
2023-04-09T07:47:13.109Z,11.44
2023-04-09T07:48:13.049Z,11.52
2023-04-09T07:49:13.061Z,11.46
2023-04-09T07:50:13.049Z,11.51
2023-04-09T07:51:13.237Z,11.57
2023-04-09T07:52:13.056Z,11.58
2023-04-09T07:53:13.032Z,11.67
2023-04-09T07:54:13.038Z,11.58
2023-04-09T07:55:13.044Z,11.55
2023-04-09T07:56:13.034Z,11.65
2023-04-09T07:57:13.039Z,11.72
2023-04-09T07:58:13.032Z,11.73
2023-04-09T07:59:13.025Z,11.70
2023-04-09T08:00:13.047Z,11.69
2023-04-09T08:01:13.021Z,11.69
2023-04-09T08:02:15.185Z,11.69
2023-04-09T08:03:13.248Z,11.69
2023-04-09T08:04:13.385Z,11.67
2023-04-09T08:05:13.074Z,11.82
2023-04-09T08:06:13.016Z,11.73
2023-04-09T08:07:13.008Z,11.95
2023-04-09T08:08:13.011Z,11.88
2023-04-09T08:09:13.013Z,11.78
2023-04-09T08:10:13.002Z,11.79
2023-04-09T08:11:13.002Z,11.88
2023-04-09T08:12:12.990Z,11.79
2023-04-09T08:13:12.993Z,11.85
2023-04-09T08:14:13.021Z,11.90
2023-04-09T08:15:12.991Z,11.98
2023-04-09T08:16:13.049Z,12.02
2023-04-09T08:17:12.981Z,11.99
2023-04-09T08:18:12.983Z,12.09
2023-04-09T08:19:12.986Z,12.13
2023-04-09T08:20:13.040Z,12.19
2023-04-09T08:21:12.975Z,12.14
2023-04-09T08:22:12.970Z,12.20
2023-04-09T08:23:12.980Z,12.20
2023-04-09T08:24:12.959Z,12.21
2023-04-09T08:25:12.964Z,12.20
2023-04-09T08:26:12.969Z,12.28
2023-04-09T08:27:12.960Z,12.29
2023-04-09T08:28:12.959Z,12.27
2023-04-09T08:29:12.967Z,12.31
2023-04-09T08:30:12.953Z,12.35
2023-04-09T08:31:12.956Z,12.45
2023-04-09T08:32:13.048Z,12.47
2023-04-09T08:33:12.949Z,12.50
2023-04-09T08:34:12.951Z,12.49
2023-04-09T08:35:12.949Z,12.57
2023-04-09T08:36:12.949Z,12.57
2023-04-09T08:37:12.936Z,12.52
2023-04-09T08:38:12.951Z,12.56
2023-04-09T08:39:12.941Z,12.54
2023-04-09T08:40:12.950Z,12.53
2023-04-09T08:41:14.092Z,12.60
2023-04-09T08:42:12.929Z,12.56
2023-04-09T08:43:12.932Z,12.59
2023-04-09T08:44:12.926Z,12.62
2023-04-09T08:45:12.957Z,12.60
2023-04-09T08:46:12.963Z,12.70
2023-04-09T08:47:12.934Z,12.77
2023-04-09T08:48:13.049Z,12.85
2023-04-09T08:49:12.983Z,12.78
2023-04-09T08:50:12.914Z,12.89
2023-04-09T08:51:12.912Z,12.89
2023-04-09T08:52:12.909Z,12.90
2023-04-09T08:53:12.919Z,12.87
2023-04-09T08:54:12.906Z,12.87
2023-04-09T08:55:12.943Z,13.00
2023-04-09T08:56:12.903Z,13.04
2023-04-09T08:57:12.906Z,13.03
2023-04-09T08:58:12.900Z,13.01
2023-04-09T08:59:12.900Z,13.07
2023-04-09T09:00:12.894Z,13.07
2023-04-09T09:01:13.667Z,13.11
2023-04-09T09:02:13.053Z,13.20
2023-04-09T09:03:12.925Z,13.19
2023-04-09T09:04:13.021Z,13.14
2023-04-09T09:05:12.893Z,13.14
2023-04-09T09:06:12.887Z,13.15
2023-04-09T09:07:12.880Z,13.08
2023-04-09T09:08:12.916Z,13.10
2023-04-09T09:09:12.881Z,13.12
2023-04-09T09:10:12.880Z,13.10
2023-04-09T09:11:12.897Z,13.14
2023-04-09T09:12:12.888Z,13.23
2023-04-09T09:13:12.892Z,13.20
2023-04-09T09:14:12.890Z,13.15
2023-04-09T09:15:12.875Z,13.19
2023-04-09T09:16:12.901Z,13.25
2023-04-09T09:17:12.935Z,13.26
2023-04-09T09:18:12.873Z,13.25
2023-04-09T09:19:12.867Z,13.25
2023-04-09T09:20:12.888Z,13.32
2023-04-09T09:21:12.875Z,13.39
2023-04-09T09:22:12.862Z,13.41
2023-04-09T09:23:12.864Z,13.51
2023-04-09T09:24:12.861Z,13.51
2023-04-09T09:25:12.898Z,13.48
2023-04-09T09:26:12.849Z,13.57
2023-04-09T09:27:12.855Z,13.64
2023-04-09T09:28:12.853Z,13.63
2023-04-09T09:29:12.855Z,13.63
2023-04-09T09:30:12.847Z,13.60
2023-04-09T09:31:12.990Z,13.75
2023-04-09T09:32:12.850Z,13.67
2023-04-09T09:33:12.861Z,13.77
2023-04-09T09:34:12.844Z,13.70
2023-04-09T09:35:12.845Z,13.88
2023-04-09T09:36:12.885Z,13.95
2023-04-09T09:37:12.840Z,14.10
2023-04-09T09:38:12.838Z,14.21
2023-04-09T09:39:12.846Z,14.18
2023-04-09T09:40:12.840Z,14.15
2023-04-09T09:41:12.841Z,14.15
2023-04-09T09:42:12.831Z,14.22
2023-04-09T09:43:14.187Z,14.24
2023-04-09T09:44:12.832Z,14.20
2023-04-09T09:45:12.835Z,14.27
2023-04-09T09:46:12.885Z,14.25
2023-04-09T09:47:12.848Z,14.39
2023-04-09T09:48:12.857Z,14.39
2023-04-09T09:49:12.833Z,14.42
2023-04-09T09:50:12.846Z,14.43
2023-04-09T09:51:12.824Z,14.47
2023-04-09T09:52:12.880Z,14.57
2023-04-09T09:53:12.829Z,14.65
2023-04-09T09:54:12.823Z,14.64
2023-04-09T09:55:12.824Z,14.81
2023-04-09T09:56:12.824Z,14.69
2023-04-09T09:57:12.832Z,14.70
2023-04-09T09:58:12.827Z,14.68
2023-04-09T09:59:12.817Z,14.77
2023-04-09T10:00:12.824Z,14.69
2023-04-09T10:01:12.860Z,14.73
2023-04-09T10:02:13.074Z,14.84
2023-04-09T10:03:12.840Z,14.83
2023-04-09T10:04:12.852Z,14.98
2023-04-09T10:05:12.810Z,15.10
2023-04-09T10:06:12.805Z,15.09
2023-04-09T10:07:12.816Z,14.92
2023-04-09T10:08:12.831Z,14.94
2023-04-09T10:09:12.808Z,14.84
2023-04-09T10:10:12.807Z,14.88
2023-04-09T10:11:12.807Z,14.99
2023-04-09T10:12:12.812Z,14.96
2023-04-09T10:13:12.801Z,15.10
2023-04-09T10:14:12.808Z,15.16
2023-04-09T10:15:12.801Z,15.13
2023-04-09T10:16:12.843Z,15.10
2023-04-09T10:17:12.826Z,15.09
2023-04-09T10:18:12.797Z,15.10
2023-04-09T10:19:12.800Z,15.07
2023-04-09T10:20:12.845Z,15.17
2023-04-09T10:21:12.813Z,15.21
2023-04-09T10:22:12.798Z,15.35
2023-04-09T10:23:12.793Z,15.36
2023-04-09T10:24:12.838Z,15.39
2023-04-09T10:25:12.824Z,15.43
2023-04-09T10:26:12.804Z,15.47
2023-04-09T10:27:15.724Z,15.29
2023-04-09T10:28:12.798Z,15.35
2023-04-09T10:29:12.792Z,15.38
2023-04-09T10:30:12.791Z,15.41
2023-04-09T10:31:12.834Z,15.51
2023-04-09T10:32:12.780Z,15.46
2023-04-09T10:33:12.785Z,15.62
2023-04-09T10:34:12.780Z,15.71
2023-04-09T10:35:12.786Z,15.84
2023-04-09T10:36:12.828Z,15.78
2023-04-09T10:37:12.780Z,15.57
2023-04-09T10:38:12.779Z,15.51
2023-04-09T10:39:12.784Z,15.56
2023-04-09T10:40:12.800Z,15.60
2023-04-09T10:41:12.793Z,15.67
2023-04-09T10:42:12.780Z,15.84
2023-04-09T10:43:12.780Z,16.05
2023-04-09T10:44:12.775Z,16.08
2023-04-09T10:45:12.790Z,16.24
2023-04-09T10:46:12.808Z,16.25
2023-04-09T10:47:12.782Z,16.35
2023-04-09T10:48:12.774Z,16.63
2023-04-09T10:49:12.786Z,16.75
2023-04-09T10:50:12.776Z,16.88
2023-04-09T10:51:12.776Z,17.31
2023-04-09T10:52:12.785Z,17.70
2023-04-09T10:53:12.780Z,17.77
2023-04-09T10:54:12.791Z,17.79
2023-04-09T10:55:12.773Z,17.95
2023-04-09T10:56:12.810Z,18.18
2023-04-09T10:57:12.782Z,18.44
2023-04-09T10:58:13.835Z,18.75
2023-04-09T10:59:12.775Z,18.91
2023-04-09T11:00:12.773Z,18.90
2023-04-09T11:01:12.777Z,18.82
2023-04-09T11:02:12.831Z,18.55
2023-04-09T11:03:12.851Z,18.65
2023-04-09T11:04:12.798Z,18.82
2023-04-09T11:05:12.786Z,18.87
2023-04-09T11:06:12.768Z,19.06
2023-04-09T11:07:12.773Z,19.04
2023-04-09T11:08:12.832Z,18.98
2023-04-09T11:09:12.779Z,18.82
2023-04-09T11:10:12.824Z,18.95
2023-04-09T11:11:12.779Z,19.26
2023-04-09T11:12:12.799Z,19.44
2023-04-09T11:13:12.778Z,19.54
2023-04-09T11:14:12.772Z,19.40
2023-04-09T11:15:12.777Z,19.66
2023-04-09T11:16:12.814Z,19.73
2023-04-09T11:17:12.777Z,19.73
2023-04-09T11:18:12.773Z,19.78
2023-04-09T11:19:12.778Z,19.83
2023-04-09T11:20:12.797Z,19.86
2023-04-09T11:21:12.778Z,19.88
2023-04-09T11:22:12.771Z,19.87
2023-04-09T11:23:12.774Z,19.96
2023-04-09T11:24:12.773Z,20.03
2023-04-09T11:25:12.777Z,20.17
2023-04-09T11:26:12.776Z,20.33
2023-04-09T11:27:12.785Z,20.51
2023-04-09T11:28:12.813Z,20.36
2023-04-09T11:29:12.794Z,20.29
2023-04-09T11:30:12.783Z,20.31
2023-04-09T11:31:13.597Z,20.28
2023-04-09T11:32:12.784Z,20.28
2023-04-09T11:33:12.784Z,20.35
2023-04-09T11:34:12.790Z,20.51
2023-04-09T11:35:12.787Z,20.52
2023-04-09T11:36:12.861Z,20.39
2023-04-09T11:37:12.788Z,20.52
2023-04-09T11:38:12.791Z,20.55
2023-04-09T11:39:12.789Z,20.67
2023-04-09T11:40:12.787Z,20.88
2023-04-09T11:41:12.808Z,20.97
2023-04-09T11:42:12.787Z,21.04
2023-04-09T11:43:12.793Z,21.17
2023-04-09T11:44:12.810Z,21.19
2023-04-09T11:45:12.798Z,21.17
2023-04-09T11:46:12.793Z,21.21
2023-04-09T11:47:12.801Z,21.25
2023-04-09T11:48:12.797Z,21.27
2023-04-09T11:49:12.797Z,21.24
2023-04-09T11:50:12.805Z,21.28
2023-04-09T11:51:12.802Z,20.88
2023-04-09T11:52:12.797Z,20.97
2023-04-09T11:53:12.806Z,21.07
2023-04-09T11:54:12.812Z,21.28
2023-04-09T11:55:12.809Z,21.50
2023-04-09T11:56:12.814Z,21.50
2023-04-09T11:57:12.813Z,21.64
2023-04-09T11:58:12.815Z,21.67
2023-04-09T11:59:12.811Z,21.61
2023-04-09T12:00:12.845Z,21.65
2023-04-09T12:01:12.818Z,21.65
2023-04-09T12:02:12.981Z,21.88
2023-04-09T12:03:13.055Z,21.86
2023-04-09T12:04:12.960Z,21.96
2023-04-09T12:05:12.883Z,22.02
2023-04-09T12:06:12.838Z,22.10
2023-04-09T12:07:12.822Z,22.03
2023-04-09T12:08:12.838Z,22.24
2023-04-09T12:09:12.833Z,22.30
2023-04-09T12:10:12.842Z,22.36
2023-04-09T12:11:12.901Z,22.49
2023-04-09T12:12:12.841Z,22.55
2023-04-09T12:13:12.839Z,22.36
2023-04-09T12:14:12.833Z,22.40
2023-04-09T12:15:12.838Z,22.55
2023-04-09T12:16:12.943Z,22.46
2023-04-09T12:17:12.846Z,22.33
2023-04-09T12:18:12.851Z,22.43
2023-04-09T12:19:12.846Z,22.27
2023-04-09T12:20:12.865Z,22.15
2023-04-09T12:21:12.847Z,22.18
2023-04-09T12:22:12.862Z,22.15
2023-04-09T12:23:12.858Z,22.09
2023-04-09T12:24:12.872Z,22.07
2023-04-09T12:25:12.863Z,22.28
2023-04-09T12:26:12.858Z,22.25
2023-04-09T12:27:12.861Z,22.40
2023-04-09T12:28:12.865Z,22.54
2023-04-09T12:29:12.862Z,22.60
2023-04-09T12:30:12.887Z,22.61
2023-04-09T12:31:12.888Z,22.46
2023-04-09T12:32:12.967Z,22.31
2023-04-09T12:33:12.875Z,22.20
2023-04-09T12:34:12.876Z,22.22
2023-04-09T12:35:12.872Z,22.10
2023-04-09T12:36:12.960Z,22.02
2023-04-09T12:37:12.882Z,21.96
2023-04-09T12:38:12.891Z,22.06
2023-04-09T12:39:12.888Z,22.12
2023-04-09T12:40:12.892Z,22.17
2023-04-09T12:41:12.890Z,22.05
2023-04-09T12:42:12.900Z,22.07
2023-04-09T12:43:12.901Z,21.99
2023-04-09T12:44:12.904Z,21.91
2023-04-09T12:45:12.909Z,21.92
2023-04-09T12:46:12.991Z,21.72
2023-04-09T12:47:12.914Z,21.46
2023-04-09T12:48:12.941Z,21.22
2023-04-09T12:49:12.922Z,21.09
2023-04-09T12:50:12.998Z,21.24
2023-04-09T12:51:12.931Z,21.25
2023-04-09T12:52:12.936Z,21.32
2023-04-09T12:53:12.941Z,21.43
2023-04-09T12:54:12.942Z,21.44
2023-04-09T12:55:13.014Z,21.42
2023-04-09T12:56:12.949Z,21.62
2023-04-09T12:57:12.953Z,21.53
2023-04-09T12:58:12.966Z,21.77
2023-04-09T12:59:12.961Z,21.83
2023-04-09T13:00:12.959Z,21.72
2023-04-09T13:01:13.052Z,21.71
2023-04-09T13:02:13.161Z,21.65
2023-04-09T13:03:13.125Z,21.61
2023-04-09T13:04:13.116Z,21.58
2023-04-09T13:05:12.979Z,21.61
2023-04-09T13:07:12.978Z,21.42